sensor_id;sensor_type;location;lat;lon;timestamp;P1;durP1;ratioP1;P2;durP2;ratioP2
42260;SDS011;27926;48.062;7.474;2022-09-23T00:00:57;3.45;;;2.13;;
42260;SDS011;27926;48.062;7.474;2022-09-23T00:03:24;4.43;;;2.60;;
42260;SDS011;27926;48.062;7.474;2022-09-23T00:06:00;12.18;;;8.68;;
42260;SDS011;27926;48.062;7.474;2022-09-23T00:08:27;6.20;;;3.60;;
42260;SDS011;27926;48.062;7.474;2022-09-23T00:10:52;4.82;;;3.10;;
42260;SDS011;27926;48.062;7.474;2022-09-23T00:13:17;6.82;;;3.65;;
42260;SDS011;27926;48.062;7.474;2022-09-23T00:15:41;6.20;;;4.22;;
42260;SDS011;27926;48.062;7.474;2022-09-23T00:18:06;8.52;;;3.75;;
42260;SDS011;27926;48.062;7.474;2022-09-23T00:20:32;6.88;;;3.40;;
42260;SDS011;27926;48.062;7.474;2022-09-23T00:22:59;3.60;;;2.55;;
42260;SDS011;27926;48.062;7.474;2022-09-23T00:25:24;8.50;;;3.45;;
42260;SDS011;27926;48.062;7.474;2022-09-23T00:27:51;7.60;;;3.05;;
42260;SDS011;27926;48.062;7.474;2022-09-23T00:30:15;9.35;;;2.97;;
42260;SDS011;27926;48.062;7.474;2022-09-23T00:32:41;4.63;;;2.80;;
42260;SDS011;27926;48.062;7.474;2022-09-23T00:35:06;4.95;;;3.03;;
42260;SDS011;27926;48.062;7.474;2022-09-23T00:37:31;10.82;;;3.53;;
42260;SDS011;27926;48.062;7.474;2022-09-23T00:39:56;10.35;;;2.88;;
42260;SDS011;27926;48.062;7.474;2022-09-23T00:42:23;5.55;;;3.10;;
42260;SDS011;27926;48.062;7.474;2022-09-23T00:44:52;10.25;;;4.95;;
42260;SDS011;27926;48.062;7.474;2022-09-23T00:50:34;2.80;;;2.22;;
42260;SDS011;27926;48.062;7.474;2022-09-23T00:53:03;5.82;;;2.83;;
42260;SDS011;27926;48.062;7.474;2022-09-23T00:55:35;3.75;;;2.38;;
42260;SDS011;27926;48.062;7.474;2022-09-23T00:58:06;5.45;;;2.50;;
42260;SDS011;27926;48.062;7.474;2022-09-23T01:00:33;8.40;;;2.80;;
42260;SDS011;27926;48.062;7.474;2022-09-23T01:02:59;3.60;;;2.50;;
42260;SDS011;27926;48.062;7.474;2022-09-23T01:07:49;5.72;;;2.28;;
42260;SDS011;27926;48.062;7.474;2022-09-23T01:10:14;4.40;;;2.53;;
42260;SDS011;27926;48.062;7.474;2022-09-23T01:15:20;5.10;;;2.58;;
42260;SDS011;27926;48.062;7.474;2022-09-23T01:23:12;2.28;;;1.98;;
42260;SDS011;27926;48.062;7.474;2022-09-23T01:26:05;7.10;;;4.53;;
42260;SDS011;27926;48.062;7.474;2022-09-23T01:28:44;6.30;;;3.95;;
42260;SDS011;27926;48.062;7.474;2022-09-23T01:31:20;11.50;;;3.47;;
42260;SDS011;27926;48.062;7.474;2022-09-23T01:33:52;4.68;;;2.78;;
42260;SDS011;27926;48.062;7.474;2022-09-23T01:36:20;6.15;;;2.67;;
42260;SDS011;27926;48.062;7.474;2022-09-23T01:39:10;10.95;;;6.35;;
42260;SDS011;27926;48.062;7.474;2022-09-23T01:42:01;5.78;;;4.10;;
42260;SDS011;27926;48.062;7.474;2022-09-23T01:44:50;7.07;;;4.60;;
42260;SDS011;27926;48.062;7.474;2022-09-23T01:47:28;7.03;;;3.22;;
42260;SDS011;27926;48.062;7.474;2022-09-23T01:50:10;5.20;;;3.00;;
42260;SDS011;27926;48.062;7.474;2022-09-23T01:53:09;4.72;;;2.85;;
42260;SDS011;27926;48.062;7.474;2022-09-23T01:55:37;6.43;;;2.40;;
42260;SDS011;27926;48.062;7.474;2022-09-23T01:58:06;5.15;;;2.55;;
42260;SDS011;27926;48.062;7.474;2022-09-23T02:00:48;8.18;;;2.70;;
42260;SDS011;27926;48.062;7.474;2022-09-23T02:03:23;5.13;;;2.97;;
42260;SDS011;27926;48.062;7.474;2022-09-23T02:06:29;6.30;;;3.20;;
42260;SDS011;27926;48.062;7.474;2022-09-23T02:08:59;12.35;;;2.72;;
42260;SDS011;27926;48.062;7.474;2022-09-23T02:11:29;6.45;;;2.53;;
42260;SDS011;27926;48.062;7.474;2022-09-23T02:16:34;7.43;;;3.10;;
42260;SDS011;27926;48.062;7.474;2022-09-23T02:19:06;4.53;;;2.40;;
42260;SDS011;27926;48.062;7.474;2022-09-23T02:21:35;9.10;;;4.40;;
42260;SDS011;27926;48.062;7.474;2022-09-23T02:24:13;7.35;;;3.80;;
42260;SDS011;27926;48.062;7.474;2022-09-23T02:26:51;7.35;;;2.97;;
42260;SDS011;27926;48.062;7.474;2022-09-23T02:29:46;7.55;;;3.95;;
42260;SDS011;27926;48.062;7.474;2022-09-23T02:42:39;4.72;;;2.70;;
42260;SDS011;27926;48.062;7.474;2022-09-23T02:45:20;4.57;;;2.88;;
42260;SDS011;27926;48.062;7.474;2022-09-23T02:47:46;10.68;;;3.25;;
42260;SDS011;27926;48.062;7.474;2022-09-23T02:50:16;8.02;;;2.83;;
42260;SDS011;27926;48.062;7.474;2022-09-23T02:55:08;5.75;;;2.85;;
42260;SDS011;27926;48.062;7.474;2022-09-23T02:57:35;6.63;;;3.00;;
42260;SDS011;27926;48.062;7.474;2022-09-23T02:59:59;5.40;;;3.47;;
42260;SDS011;27926;48.062;7.474;2022-09-23T03:15:48;8.25;;;2.85;;
42260;SDS011;27926;48.062;7.474;2022-09-23T03:18:37;7.63;;;3.60;;
42260;SDS011;27926;48.062;7.474;2022-09-23T03:21:24;5.50;;;3.42;;
42260;SDS011;27926;48.062;7.474;2022-09-23T03:23:51;6.78;;;3.55;;
42260;SDS011;27926;48.062;7.474;2022-09-23T03:28:43;4.67;;;3.47;;
42260;SDS011;27926;48.062;7.474;2022-09-23T03:31:09;9.03;;;7.63;;
42260;SDS011;27926;48.062;7.474;2022-09-23T03:33:36;10.45;;;9.20;;
42260;SDS011;27926;48.062;7.474;2022-09-23T03:36:08;6.07;;;4.45;;
42260;SDS011;27926;48.062;7.474;2022-09-23T03:38:55;6.97;;;4.07;;
42260;SDS011;27926;48.062;7.474;2022-09-23T03:41:29;6.63;;;4.07;;
42260;SDS011;27926;48.062;7.474;2022-09-23T03:43:57;5.43;;;3.65;;
42260;SDS011;27926;48.062;7.474;2022-09-23T03:46:24;13.52;;;3.83;;
42260;SDS011;27926;48.062;7.474;2022-09-23T03:48:50;6.55;;;3.65;;
42260;SDS011;27926;48.062;7.474;2022-09-23T03:51:19;8.20;;;3.85;;
42260;SDS011;27926;48.062;7.474;2022-09-23T03:53:45;14.38;;;4.30;;
42260;SDS011;27926;48.062;7.474;2022-09-23T03:56:13;18.08;;;4.43;;
42260;SDS011;27926;48.062;7.474;2022-09-23T03:58:38;6.25;;;4.40;;
42260;SDS011;27926;48.062;7.474;2022-09-23T04:01:02;6.70;;;3.45;;
42260;SDS011;27926;48.062;7.474;2022-09-23T04:03:27;7.38;;;3.10;;
42260;SDS011;27926;48.062;7.474;2022-09-23T04:05:52;6.72;;;3.30;;
42260;SDS011;27926;48.062;7.474;2022-09-23T04:08:16;6.43;;;3.28;;
42260;SDS011;27926;48.062;7.474;2022-09-23T04:10:41;7.15;;;3.67;;
42260;SDS011;27926;48.062;7.474;2022-09-23T04:13:06;8.43;;;5.57;;
42260;SDS011;27926;48.062;7.474;2022-09-23T04:15:30;7.03;;;4.72;;
42260;SDS011;27926;48.062;7.474;2022-09-23T04:17:55;10.43;;;7.65;;
42260;SDS011;27926;48.062;7.474;2022-09-23T04:20:19;12.88;;;8.13;;
42260;SDS011;27926;48.062;7.474;2022-09-23T04:22:44;9.85;;;7.15;;
42260;SDS011;27926;48.062;7.474;2022-09-23T04:25:08;10.52;;;5.80;;
42260;SDS011;27926;48.062;7.474;2022-09-23T04:27:33;6.15;;;3.78;;
42260;SDS011;27926;48.062;7.474;2022-09-23T04:29:58;14.93;;;12.95;;
42260;SDS011;27926;48.062;7.474;2022-09-23T04:32:22;11.57;;;8.65;;
42260;SDS011;27926;48.062;7.474;2022-09-23T04:34:48;9.90;;;6.65;;
42260;SDS011;27926;48.062;7.474;2022-09-23T04:37:12;7.00;;;4.82;;
42260;SDS011;27926;48.062;7.474;2022-09-23T04:39:37;6.82;;;3.33;;
42260;SDS011;27926;48.062;7.474;2022-09-23T04:42:02;6.75;;;4.53;;
42260;SDS011;27926;48.062;7.474;2022-09-23T04:44:27;9.10;;;7.72;;
42260;SDS011;27926;48.062;7.474;2022-09-23T04:46:52;8.70;;;7.43;;
42260;SDS011;27926;48.062;7.474;2022-09-23T04:49:17;10.05;;;7.43;;
42260;SDS011;27926;48.062;7.474;2022-09-23T04:51:41;10.70;;;8.40;;
42260;SDS011;27926;48.062;7.474;2022-09-23T04:54:06;9.10;;;5.78;;
42260;SDS011;27926;48.062;7.474;2022-09-23T04:56:31;13.05;;;9.20;;
42260;SDS011;27926;48.062;7.474;2022-09-23T04:58:55;6.47;;;4.90;;
42260;SDS011;27926;48.062;7.474;2022-09-23T05:01:22;6.22;;;3.28;;
42260;SDS011;27926;48.062;7.474;2022-09-23T05:03:50;6.40;;;3.90;;
42260;SDS011;27926;48.062;7.474;2022-09-23T05:06:24;6.63;;;2.90;;
42260;SDS011;27926;48.062;7.474;2022-09-23T05:08:50;6.88;;;3.33;;
42260;SDS011;27926;48.062;7.474;2022-09-23T05:11:18;4.90;;;2.95;;
42260;SDS011;27926;48.062;7.474;2022-09-23T05:13:44;10.18;;;3.25;;
42260;SDS011;27926;48.062;7.474;2022-09-23T05:16:10;5.82;;;3.40;;
42260;SDS011;27926;48.062;7.474;2022-09-23T05:18:36;9.00;;;3.83;;
42260;SDS011;27926;48.062;7.474;2022-09-23T05:21:04;7.63;;;3.72;;
42260;SDS011;27926;48.062;7.474;2022-09-23T05:23:29;6.53;;;3.50;;
42260;SDS011;27926;48.062;7.474;2022-09-23T05:25:57;9.32;;;4.28;;
42260;SDS011;27926;48.062;7.474;2022-09-23T05:28:27;9.30;;;3.90;;
42260;SDS011;27926;48.062;7.474;2022-09-23T05:31:02;5.95;;;3.47;;
42260;SDS011;27926;48.062;7.474;2022-09-23T05:33:28;6.90;;;4.20;;
42260;SDS011;27926;48.062;7.474;2022-09-23T05:35:53;13.73;;;4.22;;
42260;SDS011;27926;48.062;7.474;2022-09-23T05:38:17;6.25;;;4.30;;
42260;SDS011;27926;48.062;7.474;2022-09-23T05:40:42;6.93;;;4.90;;
42260;SDS011;27926;48.062;7.474;2022-09-23T05:43:06;10.20;;;5.00;;
42260;SDS011;27926;48.062;7.474;2022-09-23T05:45:31;9.23;;;5.82;;
42260;SDS011;27926;48.062;7.474;2022-09-23T05:47:56;11.63;;;5.15;;
42260;SDS011;27926;48.062;7.474;2022-09-23T05:50:20;12.55;;;6.47;;
42260;SDS011;27926;48.062;7.474;2022-09-23T05:52:45;9.65;;;6.18;;
42260;SDS011;27926;48.062;7.474;2022-09-23T05:55:09;17.38;;;6.35;;
42260;SDS011;27926;48.062;7.474;2022-09-23T05:57:34;8.93;;;5.85;;
42260;SDS011;27926;48.062;7.474;2022-09-23T05:59:59;8.68;;;4.47;;
42260;SDS011;27926;48.062;7.474;2022-09-23T06:02:23;8.82;;;4.40;;
42260;SDS011;27926;48.062;7.474;2022-09-23T06:04:48;14.77;;;4.45;;
42260;SDS011;27926;48.062;7.474;2022-09-23T06:07:12;10.05;;;4.93;;
42260;SDS011;27926;48.062;7.474;2022-09-23T06:09:37;6.10;;;4.05;;
42260;SDS011;27926;48.062;7.474;2022-09-23T06:12:02;11.13;;;4.97;;
42260;SDS011;27926;48.062;7.474;2022-09-23T06:14:27;6.97;;;4.47;;
42260;SDS011;27926;48.062;7.474;2022-09-23T06:16:52;7.80;;;4.88;;
42260;SDS011;27926;48.062;7.474;2022-09-23T06:19:16;7.88;;;3.97;;
42260;SDS011;27926;48.062;7.474;2022-09-23T06:21:41;11.38;;;4.82;;
42260;SDS011;27926;48.062;7.474;2022-09-23T06:24:06;9.57;;;4.88;;
42260;SDS011;27926;48.062;7.474;2022-09-23T06:26:31;12.65;;;5.50;;
42260;SDS011;27926;48.062;7.474;2022-09-23T06:28:58;7.75;;;5.45;;
42260;SDS011;27926;48.062;7.474;2022-09-23T06:31:24;7.50;;;5.10;;
42260;SDS011;27926;48.062;7.474;2022-09-23T06:33:49;7.95;;;5.32;;
42260;SDS011;27926;48.062;7.474;2022-09-23T06:36:13;10.80;;;5.82;;
42260;SDS011;27926;48.062;7.474;2022-09-23T06:38:39;9.18;;;4.95;;
42260;SDS011;27926;48.062;7.474;2022-09-23T06:41:04;9.73;;;4.57;;
42260;SDS011;27926;48.062;7.474;2022-09-23T06:43:30;17.27;;;4.82;;
42260;SDS011;27926;48.062;7.474;2022-09-23T06:45:55;10.30;;;5.55;;
42260;SDS011;27926;48.062;7.474;2022-09-23T06:48:24;8.02;;;4.45;;
42260;SDS011;27926;48.062;7.474;2022-09-23T06:50:50;6.05;;;4.25;;
42260;SDS011;27926;48.062;7.474;2022-09-23T06:53:16;12.88;;;5.05;;
42260;SDS011;27926;48.062;7.474;2022-09-23T06:55:41;8.43;;;4.65;;
42260;SDS011;27926;48.062;7.474;2022-09-23T06:58:06;20.05;;;4.55;;
42260;SDS011;27926;48.062;7.474;2022-09-23T07:00:32;11.48;;;4.38;;
42260;SDS011;27926;48.062;7.474;2022-09-23T07:02:56;7.00;;;4.00;;
42260;SDS011;27926;48.062;7.474;2022-09-23T07:05:21;13.13;;;5.20;;
42260;SDS011;27926;48.062;7.474;2022-09-23T07:07:46;6.95;;;4.53;;
42260;SDS011;27926;48.062;7.474;2022-09-23T07:10:11;8.10;;;4.60;;
42260;SDS011;27926;48.062;7.474;2022-09-23T07:12:35;10.27;;;4.78;;
42260;SDS011;27926;48.062;7.474;2022-09-23T07:15:03;11.25;;;4.32;;
42260;SDS011;27926;48.062;7.474;2022-09-23T07:17:28;7.32;;;3.92;;
42260;SDS011;27926;48.062;7.474;2022-09-23T07:19:53;15.20;;;4.40;;
42260;SDS011;27926;48.062;7.474;2022-09-23T07:22:18;6.40;;;3.30;;
42260;SDS011;27926;48.062;7.474;2022-09-23T07:24:42;9.35;;;3.85;;
42260;SDS011;27926;48.062;7.474;2022-09-23T07:27:09;7.90;;;3.78;;
42260;SDS011;27926;48.062;7.474;2022-09-23T07:29:34;6.80;;;4.20;;
42260;SDS011;27926;48.062;7.474;2022-09-23T07:31:58;7.93;;;3.45;;
42260;SDS011;27926;48.062;7.474;2022-09-23T07:34:23;5.78;;;4.13;;
42260;SDS011;27926;48.062;7.474;2022-09-23T07:36:48;8.20;;;3.83;;
42260;SDS011;27926;48.062;7.474;2022-09-23T07:39:13;5.38;;;3.45;;
42260;SDS011;27926;48.062;7.474;2022-09-23T07:41:37;7.35;;;3.75;;
42260;SDS011;27926;48.062;7.474;2022-09-23T07:44:02;10.43;;;3.90;;
42260;SDS011;27926;48.062;7.474;2022-09-23T07:46:29;5.15;;;3.05;;
42260;SDS011;27926;48.062;7.474;2022-09-23T07:48:56;7.63;;;3.38;;
42260;SDS011;27926;48.062;7.474;2022-09-23T07:51:22;6.35;;;3.45;;
42260;SDS011;27926;48.062;7.474;2022-09-23T07:54:01;10.52;;;3.70;;
42260;SDS011;27926;48.062;7.474;2022-09-23T07:56:28;4.57;;;2.90;;
42260;SDS011;27926;48.062;7.474;2022-09-23T07:58:53;8.65;;;2.63;;
42260;SDS011;27926;48.062;7.474;2022-09-23T08:01:26;6.95;;;3.35;;
42260;SDS011;27926;48.062;7.474;2022-09-23T08:03:53;6.35;;;3.10;;
42260;SDS011;27926;48.062;7.474;2022-09-23T08:06:19;3.92;;;2.65;;
42260;SDS011;27926;48.062;7.474;2022-09-23T08:08:44;5.00;;;3.08;;
42260;SDS011;27926;48.062;7.474;2022-09-23T08:11:10;7.32;;;3.03;;
42260;SDS011;27926;48.062;7.474;2022-09-23T08:13:37;8.82;;;2.55;;
42260;SDS011;27926;48.062;7.474;2022-09-23T08:16:01;8.25;;;2.65;;
42260;SDS011;27926;48.062;7.474;2022-09-23T08:18:26;6.38;;;2.55;;
42260;SDS011;27926;48.062;7.474;2022-09-23T08:20:52;5.75;;;3.05;;
42260;SDS011;27926;48.062;7.474;2022-09-23T08:23:17;8.38;;;3.28;;
42260;SDS011;27926;48.062;7.474;2022-09-23T08:25:43;15.23;;;2.60;;
42260;SDS011;27926;48.062;7.474;2022-09-23T08:28:12;7.10;;;2.97;;
42260;SDS011;27926;48.062;7.474;2022-09-23T08:30:39;3.95;;;2.60;;
42260;SDS011;27926;48.062;7.474;2022-09-23T08:33:04;5.60;;;2.47;;
42260;SDS011;27926;48.062;7.474;2022-09-23T08:35:28;6.32;;;2.85;;
42260;SDS011;27926;48.062;7.474;2022-09-23T08:37:53;28.02;;;2.88;;
42260;SDS011;27926;48.062;7.474;2022-09-23T08:40:17;11.50;;;2.53;;
42260;SDS011;27926;48.062;7.474;2022-09-23T08:42:42;4.32;;;2.47;;
42260;SDS011;27926;48.062;7.474;2022-09-23T08:45:12;8.63;;;2.85;;
42260;SDS011;27926;48.062;7.474;2022-09-23T08:50:25;6.88;;;2.45;;
42260;SDS011;27926;48.062;7.474;2022-09-23T08:53:16;4.43;;;2.60;;
42260;SDS011;27926;48.062;7.474;2022-09-23T08:55:57;15.73;;;2.78;;
42260;SDS011;27926;48.062;7.474;2022-09-23T09:03:45;2.75;;;1.92;;
42260;SDS011;27926;48.062;7.474;2022-09-23T09:06:22;2.28;;;1.60;;
42260;SDS011;27926;48.062;7.474;2022-09-23T09:09:02;4.82;;;2.15;;
42260;SDS011;27926;48.062;7.474;2022-09-23T09:11:35;6.38;;;1.75;;
42260;SDS011;27926;48.062;7.474;2022-09-23T09:14:17;5.07;;;1.80;;
42260;SDS011;27926;48.062;7.474;2022-09-23T09:22:19;3.00;;;1.63;;
42260;SDS011;27926;48.062;7.474;2022-09-23T09:24:49;8.07;;;1.90;;
42260;SDS011;27926;48.062;7.474;2022-09-23T09:27:16;10.00;;;2.13;;
42260;SDS011;27926;48.062;7.474;2022-09-23T09:29:44;9.73;;;1.88;;
42260;SDS011;27926;48.062;7.474;2022-09-23T09:34:57;4.38;;;1.55;;
42260;SDS011;27926;48.062;7.474;2022-09-23T09:37:42;8.50;;;1.98;;
42260;SDS011;27926;48.062;7.474;2022-09-23T09:40:10;10.27;;;2.30;;
42260;SDS011;27926;48.062;7.474;2022-09-23T09:42:36;3.92;;;1.85;;
42260;SDS011;27926;48.062;7.474;2022-09-23T09:45:03;10.00;;;2.20;;
42260;SDS011;27926;48.062;7.474;2022-09-23T09:53:13;3.08;;;1.75;;
42260;SDS011;27926;48.062;7.474;2022-09-23T09:56:00;4.05;;;2.22;;
42260;SDS011;27926;48.062;7.474;2022-09-23T10:01:37;6.85;;;1.55;;
42260;SDS011;27926;48.062;7.474;2022-09-23T10:04:03;4.03;;;1.73;;
42260;SDS011;27926;48.062;7.474;2022-09-23T10:09:54;6.07;;;2.40;;
42260;SDS011;27926;48.062;7.474;2022-09-23T10:12:23;5.45;;;1.90;;
42260;SDS011;27926;48.062;7.474;2022-09-23T10:14:48;6.38;;;1.55;;
42260;SDS011;27926;48.062;7.474;2022-09-23T10:17:20;4.32;;;2.20;;
42260;SDS011;27926;48.062;7.474;2022-09-23T10:19:59;3.92;;;1.77;;
42260;SDS011;27926;48.062;7.474;2022-09-23T10:22:34;2.72;;;1.70;;
42260;SDS011;27926;48.062;7.474;2022-09-23T10:25:06;8.13;;;1.80;;
42260;SDS011;27926;48.062;7.474;2022-09-23T10:27:34;6.35;;;2.00;;
42260;SDS011;27926;48.062;7.474;2022-09-23T10:32:44;6.95;;;1.88;;
42260;SDS011;27926;48.062;7.474;2022-09-23T10:40:10;4.38;;;2.13;;
42260;SDS011;27926;48.062;7.474;2022-09-23T10:46:27;3.60;;;1.80;;
42260;SDS011;27926;48.062;7.474;2022-09-23T10:51:51;4.40;;;1.70;;
42260;SDS011;27926;48.062;7.474;2022-09-23T10:56:56;5.82;;;2.40;;
42260;SDS011;27926;48.062;7.474;2022-09-23T11:02:29;4.07;;;1.85;;
42260;SDS011;27926;48.062;7.474;2022-09-23T11:05:12;2.83;;;1.40;;
42260;SDS011;27926;48.062;7.474;2022-09-23T11:07:45;2.65;;;1.52;;
42260;SDS011;27926;48.062;7.474;2022-09-23T11:21:14;3.77;;;2.00;;
42260;SDS011;27926;48.062;7.474;2022-09-23T11:23:57;3.78;;;1.48;;
42260;SDS011;27926;48.062;7.474;2022-09-23T11:34:59;2.05;;;1.38;;
42260;SDS011;27926;48.062;7.474;2022-09-23T11:37:45;5.82;;;2.08;;
42260;SDS011;27926;48.062;7.474;2022-09-23T11:40:17;1.95;;;1.20;;
42260;SDS011;27926;48.062;7.474;2022-09-23T11:42:51;4.00;;;1.75;;
42260;SDS011;27926;48.062;7.474;2022-09-23T11:45:25;5.60;;;1.70;;
42260;SDS011;27926;48.062;7.474;2022-09-23T11:53:20;7.88;;;2.03;;
42260;SDS011;27926;48.062;7.474;2022-09-23T11:55:51;7.55;;;2.00;;
42260;SDS011;27926;48.062;7.474;2022-09-23T11:58:30;4.35;;;1.70;;
42260;SDS011;27926;48.062;7.474;2022-09-23T12:01:06;2.92;;;1.23;;
42260;SDS011;27926;48.062;7.474;2022-09-23T12:03:43;2.63;;;1.55;;
42260;SDS011;27926;48.062;7.474;2022-09-23T12:06:38;2.83;;;1.67;;
42260;SDS011;27926;48.062;7.474;2022-09-23T12:09:14;2.47;;;1.45;;
42260;SDS011;27926;48.062;7.474;2022-09-23T12:11:48;4.30;;;1.70;;
42260;SDS011;27926;48.062;7.474;2022-09-23T12:17:52;2.05;;;1.33;;
42260;SDS011;27926;48.062;7.474;2022-09-23T12:23:04;2.05;;;1.55;;
42260;SDS011;27926;48.062;7.474;2022-09-23T12:28:10;5.13;;;1.77;;
42260;SDS011;27926;48.062;7.474;2022-09-23T12:30:39;4.18;;;1.90;;
42260;SDS011;27926;48.062;7.474;2022-09-23T12:33:09;3.28;;;1.38;;
42260;SDS011;27926;48.062;7.474;2022-09-23T12:35:53;3.22;;;1.67;;
42260;SDS011;27926;48.062;7.474;2022-09-23T12:40:53;3.08;;;1.23;;
42260;SDS011;27926;48.062;7.474;2022-09-23T12:43:30;2.05;;;1.25;;
42260;SDS011;27926;48.062;7.474;2022-09-23T12:51:20;3.40;;;1.80;;
42260;SDS011;27926;48.062;7.474;2022-09-23T12:53:52;2.87;;;1.57;;
42260;SDS011;27926;48.062;7.474;2022-09-23T12:56:22;4.65;;;1.73;;
42260;SDS011;27926;48.062;7.474;2022-09-23T13:03:44;3.35;;;1.48;;
42260;SDS011;27926;48.062;7.474;2022-09-23T13:06:38;4.18;;;1.52;;
42260;SDS011;27926;48.062;7.474;2022-09-23T13:09:22;3.60;;;1.52;;
42260;SDS011;27926;48.062;7.474;2022-09-23T13:11:50;5.30;;;1.80;;
42260;SDS011;27926;48.062;7.474;2022-09-23T13:14:17;4.15;;;1.50;;
42260;SDS011;27926;48.062;7.474;2022-09-23T13:16:46;6.93;;;1.83;;
42260;SDS011;27926;48.062;7.474;2022-09-23T13:22:06;1.75;;;1.05;;
42260;SDS011;27926;48.062;7.474;2022-09-23T13:24:34;2.83;;;1.30;;
42260;SDS011;27926;48.062;7.474;2022-09-23T13:27:10;2.45;;;1.30;;
42260;SDS011;27926;48.062;7.474;2022-09-23T13:29:58;7.07;;;1.75;;
42260;SDS011;27926;48.062;7.474;2022-09-23T13:32:51;4.38;;;1.63;;
42260;SDS011;27926;48.062;7.474;2022-09-23T13:35:30;2.67;;;1.50;;
42260;SDS011;27926;48.062;7.474;2022-09-23T13:38:07;3.58;;;1.73;;
42260;SDS011;27926;48.062;7.474;2022-09-23T13:40:49;7.95;;;1.35;;
42260;SDS011;27926;48.062;7.474;2022-09-23T13:43:16;4.27;;;1.47;;
42260;SDS011;27926;48.062;7.474;2022-09-23T13:45:43;3.28;;;1.60;;
42260;SDS011;27926;48.062;7.474;2022-09-23T13:48:11;4.10;;;1.63;;
42260;SDS011;27926;48.062;7.474;2022-09-23T13:50:38;4.55;;;1.73;;
42260;SDS011;27926;48.062;7.474;2022-09-23T13:53:09;3.90;;;1.50;;
42260;SDS011;27926;48.062;7.474;2022-09-23T13:55:39;6.45;;;1.40;;
42260;SDS011;27926;48.062;7.474;2022-09-23T13:58:20;3.30;;;1.20;;
42260;SDS011;27926;48.062;7.474;2022-09-23T14:00:47;4.43;;;1.50;;
42260;SDS011;27926;48.062;7.474;2022-09-23T14:03:16;2.13;;;1.27;;
42260;SDS011;27926;48.062;7.474;2022-09-23T14:05:46;1.83;;;1.15;;
42260;SDS011;27926;48.062;7.474;2022-09-23T14:08:11;8.35;;;1.38;;
42260;SDS011;27926;48.062;7.474;2022-09-23T14:10:36;5.60;;;1.20;;
42260;SDS011;27926;48.062;7.474;2022-09-23T14:13:05;6.07;;;1.23;;
42260;SDS011;27926;48.062;7.474;2022-09-23T14:15:30;2.00;;;1.50;;
42260;SDS011;27926;48.062;7.474;2022-09-23T14:18:01;3.33;;;1.40;;
42260;SDS011;27926;48.062;7.474;2022-09-23T14:20:29;2.63;;;1.30;;
42260;SDS011;27926;48.062;7.474;2022-09-23T14:23:08;6.40;;;1.40;;
42260;SDS011;27926;48.062;7.474;2022-09-23T14:25:34;3.03;;;1.30;;
42260;SDS011;27926;48.062;7.474;2022-09-23T14:27:59;2.10;;;1.23;;
42260;SDS011;27926;48.062;7.474;2022-09-23T14:30:24;3.17;;;1.53;;
42260;SDS011;27926;48.062;7.474;2022-09-23T14:32:49;7.40;;;1.43;;
42260;SDS011;27926;48.062;7.474;2022-09-23T14:35:21;1.40;;;1.30;;
42260;SDS011;27926;48.062;7.474;2022-09-23T14:37:51;2.63;;;1.33;;
42260;SDS011;27926;48.062;7.474;2022-09-23T14:40:37;8.68;;;2.22;;
42260;SDS011;27926;48.062;7.474;2022-09-23T14:43:16;5.70;;;1.77;;
42260;SDS011;27926;48.062;7.474;2022-09-23T14:45:46;7.65;;;1.58;;
42260;SDS011;27926;48.062;7.474;2022-09-23T14:48:15;8.02;;;1.42;;
42260;SDS011;27926;48.062;7.474;2022-09-23T14:50:48;2.55;;;1.50;;
42260;SDS011;27926;48.062;7.474;2022-09-23T14:58:39;4.55;;;1.70;;
42260;SDS011;27926;48.062;7.474;2022-09-23T15:01:20;4.97;;;1.73;;
42260;SDS011;27926;48.062;7.474;2022-09-23T15:03:46;9.50;;;1.75;;
42260;SDS011;27926;48.062;7.474;2022-09-23T15:06:12;6.93;;;1.45;;
42260;SDS011;27926;48.062;7.474;2022-09-23T15:08:39;9.73;;;1.43;;
42260;SDS011;27926;48.062;7.474;2022-09-23T15:11:05;12.95;;;1.30;;
42260;SDS011;27926;48.062;7.474;2022-09-23T15:13:31;5.75;;;2.63;;
42260;SDS011;27926;48.062;7.474;2022-09-23T15:15:59;5.22;;;1.83;;
42260;SDS011;27926;48.062;7.474;2022-09-23T15:18:31;3.50;;;1.47;;
42260;SDS011;27926;48.062;7.474;2022-09-23T15:21:09;2.78;;;1.48;;
42260;SDS011;27926;48.062;7.474;2022-09-23T15:26:05;2.83;;;1.75;;
42260;SDS011;27926;48.062;7.474;2022-09-23T15:28:33;3.10;;;1.83;;
42260;SDS011;27926;48.062;7.474;2022-09-23T15:30:58;4.23;;;1.73;;
42260;SDS011;27926;48.062;7.474;2022-09-23T15:33:22;1.90;;;1.63;;
42260;SDS011;27926;48.062;7.474;2022-09-23T15:35:51;5.00;;;1.80;;
42260;SDS011;27926;48.062;7.474;2022-09-23T15:38:15;3.57;;;1.93;;
42260;SDS011;27926;48.062;7.474;2022-09-23T15:40:40;6.35;;;2.33;;
42260;SDS011;27926;48.062;7.474;2022-09-23T15:45:42;9.77;;;1.98;;
42260;SDS011;27926;48.062;7.474;2022-09-23T15:48:10;8.40;;;2.40;;
42260;SDS011;27926;48.062;7.474;2022-09-23T15:50:41;3.38;;;1.83;;
42260;SDS011;27926;48.062;7.474;2022-09-23T15:53:06;3.60;;;1.60;;
42260;SDS011;27926;48.062;7.474;2022-09-23T15:55:31;14.93;;;2.30;;
42260;SDS011;27926;48.062;7.474;2022-09-23T15:57:56;4.22;;;1.55;;
42260;SDS011;27926;48.062;7.474;2022-09-23T16:00:21;7.07;;;1.30;;
42260;SDS011;27926;48.062;7.474;2022-09-23T16:02:46;3.13;;;1.70;;
42260;SDS011;27926;48.062;7.474;2022-09-23T16:05:16;5.93;;;1.30;;
42260;SDS011;27926;48.062;7.474;2022-09-23T16:07:41;3.60;;;1.25;;
42260;SDS011;27926;48.062;7.474;2022-09-23T16:10:06;5.57;;;1.87;;
42260;SDS011;27926;48.062;7.474;2022-09-23T16:12:31;5.40;;;1.85;;
42260;SDS011;27926;48.062;7.474;2022-09-23T16:14:55;5.78;;;1.73;;
42260;SDS011;27926;48.062;7.474;2022-09-23T16:17:20;4.68;;;1.77;;
42260;SDS011;27926;48.062;7.474;2022-09-23T16:19:45;7.10;;;2.57;;
42260;SDS011;27926;48.062;7.474;2022-09-23T16:22:12;3.90;;;1.50;;
42260;SDS011;27926;48.062;7.474;2022-09-23T16:24:38;5.80;;;1.73;;
42260;SDS011;27926;48.062;7.474;2022-09-23T16:27:03;11.13;;;1.97;;
42260;SDS011;27926;48.062;7.474;2022-09-23T16:29:30;5.47;;;1.90;;
42260;SDS011;27926;48.062;7.474;2022-09-23T16:31:55;3.15;;;1.98;;
42260;SDS011;27926;48.062;7.474;2022-09-23T16:34:20;7.75;;;2.17;;
42260;SDS011;27926;48.062;7.474;2022-09-23T16:36:44;12.93;;;2.80;;
42260;SDS011;27926;48.062;7.474;2022-09-23T16:39:10;12.17;;;2.17;;
42260;SDS011;27926;48.062;7.474;2022-09-23T16:41:36;15.95;;;2.17;;
42260;SDS011;27926;48.062;7.474;2022-09-23T16:44:02;2.88;;;1.75;;
42260;SDS011;27926;48.062;7.474;2022-09-23T16:46:29;4.10;;;1.70;;
42260;SDS011;27926;48.062;7.474;2022-09-23T16:48:54;10.20;;;2.22;;
42260;SDS011;27926;48.062;7.474;2022-09-23T16:51:27;14.98;;;2.38;;
42260;SDS011;27926;48.062;7.474;2022-09-23T16:53:54;9.48;;;2.75;;
42260;SDS011;27926;48.062;7.474;2022-09-23T16:56:21;8.98;;;1.88;;
42260;SDS011;27926;48.062;7.474;2022-09-23T16:58:47;5.05;;;2.25;;
42260;SDS011;27926;48.062;7.474;2022-09-23T17:03:57;10.07;;;2.17;;
42260;SDS011;27926;48.062;7.474;2022-09-23T17:06:21;8.05;;;2.13;;
42260;SDS011;27926;48.062;7.474;2022-09-23T17:08:47;8.88;;;1.92;;
42260;SDS011;27926;48.062;7.474;2022-09-23T17:11:12;2.85;;;1.95;;
42260;SDS011;27926;48.062;7.474;2022-09-23T17:13:37;9.38;;;1.83;;
42260;SDS011;27926;48.062;7.474;2022-09-23T17:16:04;13.23;;;2.17;;
42260;SDS011;27926;48.062;7.474;2022-09-23T17:18:28;6.78;;;1.95;;
42260;SDS011;27926;48.062;7.474;2022-09-23T17:21:04;5.55;;;2.30;;
42260;SDS011;27926;48.062;7.474;2022-09-23T17:23:30;6.28;;;3.17;;
42260;SDS011;27926;48.062;7.474;2022-09-23T17:25:59;5.00;;;2.13;;
42260;SDS011;27926;48.062;7.474;2022-09-23T17:28:25;8.30;;;2.25;;
42260;SDS011;27926;48.062;7.474;2022-09-23T17:31:00;10.30;;;2.47;;
42260;SDS011;27926;48.062;7.474;2022-09-23T17:33:27;6.40;;;2.92;;